createdAt,value
2019-05-11T00:01:41.305Z,17.40
2019-05-11T00:04:09.707Z,17.40
2019-05-11T00:06:37.834Z,17.50
2019-05-11T00:09:06.894Z,17.60
2019-05-11T00:11:35.275Z,17.60
2019-05-11T00:14:03.508Z,17.70
2019-05-11T00:16:31.650Z,17.70
2019-05-11T00:19:00.177Z,17.70
2019-05-11T00:21:28.420Z,17.80
2019-05-11T00:23:56.599Z,17.70
2019-05-11T00:26:24.895Z,17.70
2019-05-11T00:28:53.253Z,17.70
2019-05-11T00:31:21.524Z,17.70
2019-05-11T00:33:49.727Z,17.70
2019-05-11T00:36:17.962Z,17.70
2019-05-11T00:38:46.278Z,17.50
2019-05-11T00:41:14.824Z,17.60
2019-05-11T00:43:43.199Z,17.60
2019-05-11T00:46:11.370Z,17.50
2019-05-11T00:48:39.586Z,17.50
2019-05-11T00:51:07.674Z,17.50
2019-05-11T00:53:36.007Z,17.60
2019-05-11T00:56:05.212Z,17.60
2019-05-11T00:58:33.459Z,17.70
2019-05-11T01:01:01.470Z,17.80
2019-05-11T01:03:29.747Z,17.80
2019-05-11T01:05:58.003Z,17.80
2019-05-11T01:08:26.190Z,17.90
2019-05-11T01:10:54.484Z,18.00
2019-05-11T01:13:22.721Z,17.90
2019-05-11T01:15:50.888Z,17.90
2019-05-11T01:18:19.312Z,17.90
2019-05-11T01:20:47.553Z,17.90
2019-05-11T01:23:15.711Z,17.90
2019-05-11T01:25:43.940Z,17.90
2019-05-11T01:28:11.950Z,17.80
2019-05-11T01:30:40.222Z,17.80
2019-05-11T01:33:08.449Z,17.80
2019-05-11T01:35:36.676Z,17.80
2019-05-11T01:38:04.848Z,17.80
2019-05-11T01:40:33.068Z,17.80
2019-05-11T01:43:01.194Z,17.70
2019-05-11T01:45:29.384Z,17.70
2019-05-11T01:48:16.914Z,17.60
2019-05-11T01:50:45.171Z,17.60
2019-05-11T01:53:13.462Z,17.70
2019-05-11T01:55:41.660Z,17.60
2019-05-11T01:58:09.908Z,17.60
2019-05-11T02:00:38.179Z,17.60
2019-05-11T02:03:06.614Z,17.50
2019-05-11T02:05:34.838Z,17.50
2019-05-11T02:08:03.022Z,17.40
2019-05-11T02:10:31.344Z,17.40
2019-05-11T02:12:59.514Z,17.40
2019-05-11T02:15:27.757Z,17.20
2019-05-11T02:17:56.050Z,17.10
2019-05-11T02:20:24.271Z,17.00
2019-05-11T02:22:52.248Z,17.00
2019-05-11T02:25:20.469Z,17.00
2019-05-11T02:27:48.715Z,16.90
2019-05-11T02:30:17.276Z,16.90
2019-05-11T02:32:45.666Z,16.90
2019-05-11T02:35:14.146Z,16.90
2019-05-11T02:37:42.399Z,17.00
2019-05-11T02:40:11.137Z,16.90
2019-05-11T02:42:39.693Z,16.90
2019-05-11T02:45:09.103Z,16.80
2019-05-11T02:47:37.511Z,16.90
2019-05-11T02:50:05.929Z,17.00
2019-05-11T02:52:35.003Z,16.90
2019-05-11T02:55:03.879Z,16.90
2019-05-11T02:57:32.111Z,16.70
2019-05-11T03:00:00.369Z,16.70
2019-05-11T03:02:28.790Z,16.60
2019-05-11T03:04:56.942Z,16.60
2019-05-11T03:07:25.315Z,16.60
2019-05-11T03:09:53.623Z,16.70
2019-05-11T03:12:21.864Z,16.60
2019-05-11T03:14:50.036Z,16.50
2019-05-11T03:17:22.328Z,16.60
2019-05-11T03:19:50.568Z,16.40
2019-05-11T03:22:18.744Z,16.50
2019-05-11T03:24:46.968Z,16.40
2019-05-11T03:27:15.126Z,16.40
2019-05-11T03:29:43.975Z,16.40
2019-05-11T03:32:12.215Z,16.40
2019-05-11T03:34:40.532Z,16.30
2019-05-11T03:37:08.836Z,16.00
2019-05-11T03:39:37.135Z,16.00
2019-05-11T03:42:14.759Z,16.00
2019-05-11T03:44:35.265Z,16.20
2019-05-11T03:47:03.696Z,16.10
2019-05-11T03:49:31.942Z,16.00
2019-05-11T03:52:00.095Z,15.80
2019-05-11T03:54:28.494Z,16.00
2019-05-11T03:56:56.766Z,16.00
2019-05-11T03:59:25.041Z,16.20
2019-05-11T04:01:53.013Z,16.20
2019-05-11T04:04:22.935Z,16.20
2019-05-11T04:06:51.304Z,16.10
2019-05-11T04:09:19.680Z,15.70
2019-05-11T04:11:47.941Z,15.60
2019-05-11T04:14:16.229Z,15.80
2019-05-11T04:16:44.460Z,16.00
2019-05-11T04:19:12.651Z,16.20
2019-05-11T04:21:40.865Z,16.00
2019-05-11T04:24:09.287Z,15.80
2019-05-11T04:26:37.494Z,15.70
2019-05-11T04:29:05.563Z,15.80
2019-05-11T04:31:34.075Z,15.70
2019-05-11T04:34:02.353Z,15.50
2019-05-11T04:36:30.645Z,15.80
2019-05-11T04:38:58.845Z,16.00
2019-05-11T04:41:27.046Z,16.10
2019-05-11T04:43:55.211Z,16.20
2019-05-11T04:46:23.449Z,16.40
2019-05-11T04:48:51.763Z,16.30
2019-05-11T04:51:19.968Z,16.30
2019-05-11T04:53:48.354Z,16.30
2019-05-11T04:56:16.597Z,16.40
2019-05-11T04:58:44.974Z,16.60
2019-05-11T05:01:13.286Z,16.70
2019-05-11T05:03:47.493Z,17.00
2019-05-11T05:06:22.277Z,16.80
2019-05-11T05:08:43.032Z,16.90
2019-05-11T05:11:11.267Z,16.90
2019-05-11T05:13:39.463Z,17.10
2019-05-11T05:16:07.850Z,17.10
2019-05-11T05:18:36.112Z,17.20
2019-05-11T05:21:04.283Z,17.10
2019-05-11T05:23:32.305Z,17.20
2019-05-11T05:26:00.526Z,17.10
2019-05-11T05:28:28.617Z,17.30
2019-05-11T05:30:57.042Z,17.40
2019-05-11T05:33:25.442Z,17.60
2019-05-11T05:35:53.617Z,17.50
2019-05-11T05:38:21.822Z,17.50
2019-05-11T05:40:50.072Z,17.50
2019-05-11T05:43:28.164Z,17.70
2019-05-11T05:45:48.397Z,17.80
2019-05-11T05:48:16.652Z,17.60
2019-05-11T05:50:44.913Z,17.80
2019-05-11T05:53:13.250Z,17.60
2019-05-11T05:55:41.469Z,17.50
2019-05-11T05:58:09.541Z,17.70
2019-05-11T06:00:38.958Z,17.60
2019-05-11T06:03:07.098Z,17.80
2019-05-11T06:05:35.166Z,17.80
2019-05-11T06:08:05.330Z,18.30
2019-05-11T06:10:33.815Z,18.40
2019-05-11T06:13:02.050Z,18.40
2019-05-11T06:15:30.393Z,18.50
2019-05-11T06:18:00.592Z,18.70
2019-05-11T06:20:30.110Z,19.10
2019-05-11T06:22:58.372Z,19.40
2019-05-11T06:25:26.620Z,19.60
2019-05-11T06:27:54.795Z,19.50
2019-05-11T06:30:23.239Z,20.00
2019-05-11T06:32:51.422Z,20.50
2019-05-11T06:35:22.590Z,21.10
2019-05-11T06:37:49.549Z,21.20
2019-05-11T06:40:17.946Z,21.40
2019-05-11T06:42:46.288Z,21.90
2019-05-11T06:45:14.737Z,22.00
2019-05-11T06:47:43.142Z,22.50
2019-05-11T06:50:11.609Z,22.70
2019-05-11T06:52:39.841Z,23.00
2019-05-11T06:55:08.260Z,23.00
2019-05-11T06:57:36.537Z,22.90
2019-05-11T07:00:05.175Z,23.50
2019-05-11T07:02:33.042Z,23.80
2019-05-11T07:05:01.253Z,24.00
2019-05-11T07:07:29.476Z,23.80
2019-05-11T07:09:59.347Z,24.00
2019-05-11T07:12:27.893Z,24.10
2019-05-11T07:14:56.160Z,24.60
2019-05-11T07:17:24.409Z,24.00
2019-05-11T07:19:52.645Z,24.40
2019-05-11T07:22:20.761Z,23.70
2019-05-11T07:24:48.998Z,24.10
2019-05-11T07:27:17.426Z,24.40
2019-05-11T07:29:45.615Z,23.80
2019-05-11T07:32:21.925Z,23.90
2019-05-11T07:34:43.844Z,24.20
2019-05-11T07:37:12.065Z,23.30
2019-05-11T07:39:40.289Z,23.20
2019-05-11T07:42:08.368Z,22.20
2019-05-11T07:44:39.311Z,21.80
2019-05-11T07:47:07.939Z,22.20
2019-05-11T07:49:38.298Z,22.20
2019-05-11T07:52:07.765Z,22.50
2019-05-11T07:54:38.374Z,23.70
2019-05-11T07:57:07.884Z,23.80
2019-05-11T07:59:38.006Z,23.60
2019-05-11T08:02:06.035Z,23.20
2019-05-11T08:04:34.212Z,22.80
2019-05-11T08:07:02.655Z,22.00
2019-05-11T08:09:30.883Z,22.50
2019-05-11T08:12:00.064Z,22.20
2019-05-11T08:14:28.922Z,23.50
2019-05-11T08:16:59.420Z,22.50
2019-05-11T08:19:28.302Z,22.30
2019-05-11T08:21:58.233Z,22.60
2019-05-11T08:24:28.432Z,22.10
2019-05-11T08:26:58.201Z,22.50
2019-05-11T08:29:27.817Z,22.00
2019-05-11T08:31:57.911Z,22.70
2019-05-11T08:34:28.407Z,22.70
2019-05-11T08:36:58.437Z,23.20
2019-05-11T08:39:28.661Z,24.30
2019-05-11T08:41:58.784Z,24.80
2019-05-11T08:44:28.745Z,25.30
2019-05-11T08:46:58.219Z,24.10
2019-05-11T08:49:28.731Z,24.30
2019-05-11T08:51:57.880Z,24.60
2019-05-11T08:54:28.560Z,24.10
2019-05-11T08:56:58.526Z,25.00
2019-05-11T08:59:27.871Z,25.00
2019-05-11T09:01:58.550Z,24.30
2019-05-11T09:04:28.640Z,24.30
2019-05-11T09:09:32.110Z,24.50
2019-05-11T09:12:00.276Z,23.70
2019-05-11T09:14:28.613Z,24.90
2019-05-11T09:16:57.731Z,24.00
2019-05-11T09:19:28.232Z,23.40
2019-05-11T09:21:56.007Z,23.30
2019-05-11T09:24:24.187Z,24.10
2019-05-11T09:26:52.514Z,25.00
2019-05-11T09:29:20.854Z,24.70
2019-05-11T09:31:49.210Z,24.50
2019-05-11T09:34:18.068Z,24.40
2019-05-11T09:36:48.057Z,25.00
2019-05-11T09:39:17.779Z,25.60
2019-05-11T09:41:48.648Z,25.70
2019-05-11T09:44:18.265Z,25.70
2019-05-11T09:46:47.797Z,25.70
2019-05-11T09:49:18.991Z,26.10
2019-05-11T09:51:48.342Z,26.30
2019-05-11T09:54:18.292Z,25.90
2019-05-11T09:56:48.625Z,26.50
2019-05-11T09:59:17.877Z,26.80
2019-05-11T10:01:48.307Z,26.80
2019-05-11T10:04:18.072Z,27.00
2019-05-11T10:06:48.033Z,26.50
2019-05-11T10:09:18.471Z,24.80
2019-05-11T10:11:47.995Z,23.80
2019-05-11T10:14:18.565Z,23.90
2019-05-11T10:16:46.386Z,24.10
2019-05-11T10:19:14.659Z,24.40
2019-05-11T10:21:43.038Z,24.80
2019-05-11T10:24:11.171Z,24.60
2019-05-11T10:26:39.480Z,23.90
2019-05-11T10:29:08.007Z,24.20
2019-05-11T10:31:38.385Z,24.40
2019-05-11T10:34:08.467Z,24.60
2019-05-11T10:36:38.316Z,24.40
2019-05-11T10:39:07.956Z,24.90
2019-05-11T10:41:55.256Z,24.10
2019-05-11T10:44:23.507Z,23.20
2019-05-11T10:46:51.864Z,23.70
2019-05-11T10:49:20.070Z,23.60
2019-05-11T10:51:48.736Z,24.10
2019-05-11T10:54:18.655Z,24.60
2019-05-11T10:56:48.155Z,26.00
2019-05-11T10:59:18.550Z,26.10
2019-05-11T11:01:48.372Z,26.10
2019-05-11T11:04:18.421Z,25.10
2019-05-11T11:06:48.568Z,24.70
2019-05-11T11:09:17.800Z,24.20
2019-05-11T11:11:48.649Z,23.90
2019-05-11T11:14:18.066Z,23.60
2019-05-11T11:16:47.849Z,23.70
2019-05-11T11:19:18.264Z,23.50
2019-05-11T11:21:48.574Z,23.30
2019-05-11T11:24:17.973Z,23.80
2019-05-11T11:26:48.393Z,23.50
2019-05-11T11:29:17.860Z,23.90
2019-05-11T11:31:48.150Z,24.50
2019-05-11T11:34:18.558Z,24.70
2019-05-11T11:36:48.128Z,24.60
2019-05-11T11:39:18.566Z,24.60
2019-05-11T11:41:48.546Z,25.10
2019-05-11T11:44:18.489Z,25.20
2019-05-11T11:46:52.067Z,25.60
2019-05-11T11:49:18.802Z,25.50
2019-05-11T11:51:48.444Z,24.50
2019-05-11T11:54:18.190Z,24.70
2019-05-11T11:56:48.521Z,24.00
2019-05-11T11:59:17.848Z,23.60
2019-05-11T12:01:48.506Z,23.20
2019-05-11T12:04:16.148Z,23.50
2019-05-11T12:06:44.392Z,24.00
2019-05-11T12:09:12.472Z,24.50
2019-05-11T12:11:40.689Z,24.30
2019-05-11T12:14:08.874Z,24.30
2019-05-11T12:16:38.855Z,24.30
2019-05-11T12:19:08.489Z,24.40
2019-05-11T12:21:37.966Z,24.00
2019-05-11T12:24:08.141Z,23.50
2019-05-11T12:26:38.663Z,23.90
2019-05-11T12:29:08.140Z,23.60
2019-05-11T12:31:37.991Z,23.30
2019-05-11T12:34:08.520Z,23.10
2019-05-11T12:36:38.491Z,23.30
2019-05-11T12:39:08.352Z,23.30
2019-05-11T12:41:38.711Z,23.40
2019-05-11T12:44:08.230Z,23.50
2019-05-11T12:46:37.433Z,23.50
2019-05-11T12:49:07.799Z,23.50
2019-05-11T12:51:38.209Z,24.00
2019-05-11T12:54:08.186Z,24.20
2019-05-11T12:56:38.274Z,24.10
2019-05-11T12:59:09.034Z,24.30
2019-05-11T13:01:38.138Z,24.90
2019-05-11T13:04:08.840Z,24.90
2019-05-11T13:06:38.537Z,23.90
2019-05-11T13:09:07.752Z,23.60
2019-05-11T13:11:38.000Z,23.40
2019-05-11T13:14:08.043Z,23.60
2019-05-11T13:16:37.869Z,24.10
2019-05-11T13:19:08.313Z,24.00
2019-05-11T13:21:38.235Z,23.80
2019-05-11T13:24:08.366Z,23.80
2019-05-11T13:26:38.014Z,23.80
2019-05-11T13:29:07.752Z,23.60
2019-05-11T13:31:38.205Z,23.60
2019-05-11T13:34:08.165Z,23.70
2019-05-11T13:36:38.212Z,23.20
2019-05-11T13:39:08.903Z,23.40
2019-05-11T13:41:38.266Z,23.20
2019-05-11T13:44:08.039Z,23.10
2019-05-11T13:46:38.694Z,22.50
2019-05-11T13:49:08.391Z,22.30
2019-05-11T13:51:36.098Z,22.40
2019-05-11T13:54:04.360Z,22.30
2019-05-11T13:56:32.851Z,22.60
2019-05-11T13:59:10.816Z,22.60
2019-05-11T14:01:39.317Z,22.80
2019-05-11T14:04:08.573Z,22.50
2019-05-11T14:06:37.795Z,22.90
2019-05-11T14:09:08.791Z,23.20
2019-05-11T14:11:39.019Z,23.40
2019-05-11T14:14:07.770Z,24.10
2019-05-11T14:16:37.892Z,24.50
2019-05-11T14:19:08.361Z,24.40
2019-05-11T14:21:38.451Z,24.40
2019-05-11T14:24:07.770Z,24.60
2019-05-11T14:26:38.392Z,24.10
2019-05-11T14:29:06.407Z,24.10
2019-05-11T14:31:37.988Z,24.00
2019-05-11T14:34:08.682Z,23.80
2019-05-11T14:36:38.510Z,23.70
2019-05-11T14:39:08.417Z,23.30
2019-05-11T14:41:38.028Z,23.70
2019-05-11T14:44:08.920Z,23.50
2019-05-11T14:46:38.434Z,23.70
2019-05-11T14:49:08.001Z,23.50
2019-05-11T14:51:38.825Z,23.90
2019-05-11T14:54:08.118Z,23.90
2019-05-11T14:56:38.093Z,23.20
2019-05-11T14:59:08.976Z,23.30
2019-05-11T15:01:38.185Z,23.40
2019-05-11T15:04:08.770Z,23.60
2019-05-11T15:06:38.672Z,23.20
2019-05-11T15:09:07.814Z,23.30
2019-05-11T15:11:38.625Z,23.20
2019-05-11T15:14:08.087Z,23.10
2019-05-11T15:16:38.441Z,23.20
2019-05-11T15:19:08.060Z,23.00
2019-05-11T15:21:38.505Z,22.90
2019-05-11T15:24:18.529Z,22.50
2019-05-11T15:26:48.640Z,22.60
2019-05-11T15:29:18.468Z,22.50
2019-05-11T15:31:48.566Z,22.50
2019-05-11T15:34:37.960Z,22.50
2019-05-11T15:37:07.945Z,22.60
2019-05-11T15:39:37.719Z,22.50
2019-05-11T15:42:11.726Z,22.60
2019-05-11T15:44:37.844Z,22.50
2019-05-11T15:47:07.813Z,22.50
2019-05-11T15:49:37.664Z,22.60
2019-05-11T15:52:08.149Z,22.50
2019-05-11T15:54:38.424Z,22.40
2019-05-11T15:57:08.287Z,22.40
2019-05-11T15:59:38.720Z,22.40
2019-05-11T16:02:08.448Z,22.50
2019-05-11T16:04:38.165Z,22.50
2019-05-11T16:07:08.309Z,22.70
2019-05-11T16:09:38.088Z,22.70
2019-05-11T16:12:06.234Z,22.70
2019-05-11T16:14:34.459Z,22.80
2019-05-11T16:17:02.622Z,22.90
2019-05-11T16:19:30.954Z,23.30
2019-05-11T16:21:59.154Z,23.20
2019-05-11T16:24:28.420Z,23.30
2019-05-11T16:26:58.296Z,23.30
2019-05-11T16:29:28.056Z,23.20
2019-05-11T16:31:57.818Z,23.10
2019-05-11T16:34:27.760Z,23.00
2019-05-11T16:36:59.492Z,23.10
2019-05-11T16:39:28.061Z,23.10
2019-05-11T16:41:57.859Z,23.10
2019-05-11T16:44:26.398Z,23.10
2019-05-11T16:46:54.779Z,23.20
2019-05-11T16:49:28.531Z,23.10
2019-05-11T16:51:53.230Z,23.00
2019-05-11T16:54:21.455Z,22.90
2019-05-11T16:56:49.707Z,22.80
2019-05-11T16:59:18.326Z,22.80
2019-05-11T17:02:08.042Z,22.70
2019-05-11T17:04:36.034Z,22.60
2019-05-11T17:07:03.944Z,22.60
2019-05-11T17:09:32.190Z,22.60
2019-05-11T17:12:00.448Z,22.50
2019-05-11T17:14:28.625Z,22.70
2019-05-11T17:16:58.564Z,22.70
2019-05-11T17:19:42.158Z,22.60
2019-05-11T17:21:56.915Z,22.60
2019-05-11T17:24:25.025Z,22.50
2019-05-11T17:26:53.369Z,22.50
2019-05-11T17:29:21.605Z,22.50
2019-05-11T17:31:49.856Z,22.50
2019-05-11T17:34:20.577Z,22.50
2019-05-11T17:36:47.899Z,22.40
2019-05-11T17:39:18.687Z,22.40
2019-05-11T17:41:47.986Z,22.40
2019-05-11T17:44:18.348Z,22.30
2019-05-11T17:46:46.216Z,22.20
2019-05-11T17:49:14.296Z,22.10
2019-05-11T17:51:42.476Z,22.00
2019-05-11T17:54:11.440Z,22.00
2019-05-11T17:56:39.735Z,22.00
2019-05-11T17:59:08.193Z,22.00
2019-05-11T18:01:36.757Z,22.00
2019-05-11T18:04:04.980Z,21.90
2019-05-11T18:06:33.147Z,21.90
2019-05-11T18:09:01.364Z,22.00
2019-05-11T18:11:29.901Z,22.00
2019-05-11T18:13:58.634Z,22.10
2019-05-11T18:16:26.912Z,22.00
2019-05-11T18:18:55.037Z,22.10
2019-05-11T18:21:23.311Z,21.90
2019-05-11T18:23:51.845Z,21.70
2019-05-11T18:26:21.746Z,21.70
2019-05-11T18:28:50.006Z,21.70
2019-05-11T18:31:18.368Z,21.70
2019-05-11T18:33:48.554Z,21.50
2019-05-11T18:36:18.355Z,21.50
2019-05-11T18:38:48.718Z,21.40
2019-05-11T18:41:17.549Z,21.20
2019-05-11T18:43:48.169Z,21.20
2019-05-11T18:46:22.922Z,21.10
2019-05-11T18:48:51.364Z,21.00
2019-05-11T18:51:19.839Z,20.90
2019-05-11T18:53:48.335Z,21.00
2019-05-11T18:56:18.148Z,20.70
2019-05-11T18:58:47.788Z,20.80
2019-05-11T19:01:17.849Z,20.70
2019-05-11T19:03:47.947Z,20.70
2019-05-11T19:06:18.349Z,20.70
2019-05-11T19:08:47.854Z,20.50
2019-05-11T19:11:18.288Z,20.50
2019-05-11T19:13:47.789Z,20.40
2019-05-11T19:16:18.699Z,20.50
2019-05-11T19:18:47.959Z,20.50
2019-05-11T19:21:17.968Z,20.40
2019-05-11T19:23:48.674Z,20.40
2019-05-11T19:26:17.867Z,20.30
2019-05-11T19:28:46.446Z,20.40
2019-05-11T19:31:14.890Z,20.50
2019-05-11T19:33:45.682Z,20.40
2019-05-11T19:36:13.356Z,20.20
2019-05-11T19:38:41.847Z,20.30
2019-05-11T19:41:10.096Z,20.30
2019-05-11T19:43:38.511Z,20.50
2019-05-11T19:46:08.856Z,20.40
2019-05-11T19:48:38.416Z,20.40
2019-05-11T19:51:09.121Z,20.10
2019-05-11T19:53:38.691Z,20.00
2019-05-11T19:56:07.805Z,19.90
2019-05-11T19:58:38.060Z,19.90
2019-05-11T20:01:08.728Z,19.70
2019-05-11T20:03:37.860Z,19.70
2019-05-11T20:06:08.531Z,19.80
2019-05-11T20:08:36.833Z,19.70
2019-05-11T20:11:08.070Z,19.70
2019-05-11T20:13:39.023Z,19.70
2019-05-11T20:16:11.957Z,19.70
2019-05-11T20:18:41.530Z,19.60
2019-05-11T20:21:19.194Z,19.60
2019-05-11T20:23:41.546Z,19.50
2019-05-11T20:26:30.910Z,19.50
2019-05-11T20:28:59.761Z,19.40
2019-05-11T20:31:30.958Z,19.40
2019-05-11T20:33:59.557Z,19.70
2019-05-11T20:36:27.980Z,19.70
2019-05-11T20:38:57.786Z,19.60
2019-05-11T20:41:27.964Z,19.60
2019-05-11T20:43:58.049Z,19.50
2019-05-11T20:46:27.761Z,19.50
2019-05-11T20:48:57.970Z,19.40
2019-05-11T20:51:36.266Z,19.30
2019-05-11T20:53:57.892Z,19.20
2019-05-11T20:56:28.372Z,19.30
2019-05-11T20:58:59.528Z,19.30
2019-05-11T21:01:28.589Z,19.20
2019-05-11T21:03:58.463Z,19.40
2019-05-11T21:06:29.368Z,19.80
2019-05-11T21:08:57.195Z,19.60
2019-05-11T21:11:25.777Z,19.50
2019-05-11T21:13:54.437Z,19.30
2019-05-11T21:16:22.809Z,19.30
2019-05-11T21:18:51.230Z,19.20
2019-05-11T21:21:20.014Z,19.20
2019-05-11T21:23:48.837Z,19.20
2019-05-11T21:26:18.852Z,19.00
2019-05-11T21:28:48.679Z,19.00
2019-05-11T21:31:18.829Z,19.00
2019-05-11T21:33:47.244Z,19.10
2019-05-11T21:36:17.793Z,19.10
2019-05-11T21:38:48.013Z,18.90
2019-05-11T21:41:16.043Z,18.90
2019-05-11T21:43:44.494Z,19.00
2019-05-11T21:46:12.714Z,18.90
2019-05-11T21:48:41.106Z,19.00
2019-05-11T21:51:09.281Z,18.80
2019-05-11T21:53:38.158Z,18.80
2019-05-11T21:56:08.158Z,18.90
2019-05-11T21:58:37.760Z,18.90
2019-05-11T22:01:06.665Z,18.80
2019-05-11T22:03:35.001Z,18.80
2019-05-11T22:06:03.572Z,18.80
2019-05-11T22:08:31.908Z,18.60
2019-05-11T22:11:00.243Z,18.60
2019-05-11T22:13:28.893Z,18.90
2019-05-11T22:15:58.087Z,18.90
2019-05-11T22:18:30.916Z,19.00
2019-05-11T22:20:57.910Z,18.90
2019-05-11T22:23:28.160Z,18.70
2019-05-11T22:25:58.694Z,18.60
2019-05-11T22:28:28.491Z,18.60
2019-05-11T22:30:56.491Z,18.60
2019-05-11T22:33:25.613Z,18.60
2019-05-11T22:35:54.922Z,18.50
2019-05-11T22:38:23.148Z,18.50
2019-05-11T22:40:51.248Z,18.40
2019-05-11T22:43:19.436Z,18.40
2019-05-11T22:45:48.631Z,18.40
2019-05-11T22:48:16.779Z,18.30
2019-05-11T22:50:45.075Z,18.30
2019-05-11T22:53:13.242Z,18.30
2019-05-11T22:55:41.437Z,18.20
2019-05-11T22:58:09.508Z,18.30
2019-05-11T23:00:42.121Z,18.20
2019-05-11T23:03:10.844Z,18.20
2019-05-11T23:05:40.173Z,18.20
2019-05-11T23:08:08.406Z,18.20
2019-05-11T23:10:38.750Z,18.20
2019-05-11T23:13:08.209Z,18.10
2019-05-11T23:15:40.046Z,18.20
2019-05-11T23:18:08.530Z,18.20
2019-05-11T23:20:38.616Z,18.10
2019-05-11T23:23:08.785Z,18.00
2019-05-11T23:25:57.977Z,18.20
2019-05-11T23:28:28.627Z,18.30
2019-05-11T23:30:58.260Z,18.20
2019-05-11T23:33:27.930Z,18.30
2019-05-11T23:35:58.577Z,18.40
2019-05-11T23:38:28.156Z,18.40
2019-05-11T23:40:58.217Z,18.50
2019-05-11T23:43:29.794Z,18.40
2019-05-11T23:45:57.758Z,18.30
2019-05-11T23:48:28.029Z,18.30
2019-05-11T23:50:58.041Z,18.50
2019-05-11T23:53:28.046Z,18.60
2019-05-11T23:55:57.991Z,18.70
2019-05-11T23:58:28.100Z,18.90
